Terminal Aerodrome Forecast
Issued by NWS Huntsville, AL

Home | Current Version | Previous Version | Text Only | Print | Product List | Glossary On
Versions: 1 2 3 4 5 6 7 8 9 10 11 12 13 14 15 16 17 18 19 20 21 22 23 24
000
FTUS44 KHUN 251720
TAFHSV
TAF
KHSV 251720Z 2518/2618 VRB03KT P6SM SCT010 OVC015
     FM252000 VRB03KT P6SM SCT025 OVC150
     FM260300 VRB03KT 6SM -RA BKN015 OVC040
     FM260900 34004KT 4SM BR BKN007 OVC015
     FM261500 36006KT P6SM SCT015 OVC035=

USA.gov is the U.S. government's official web portal to all federal, state and local government web resources and services.